Terminal Aerodrome Forecast
Issued by NWS

Home | Current Version | Previous Version | Text Only | Print | Product List | Glossary On
Versions: 1 2 3 4 5 6 7 8 9 10 11 12 13 14 15
825
FTAK31 PAJN 191341 AAA
TAFAWG
TAF AMD
PAWG 191341Z 1914/2012 VRB03KT P6SM -SHRA SCT025 BKN040 OVC070
      TEMPO 1914/1916 BKN008 OVC020
     FM192100 30006KT P6SM SCT025 BKN060
     FM200800 VRB03KT 4SM BR SCT002
      AMD LTD TO CLD VIS AND WIND 1914/1915=

USA.gov is the U.S. government's official web portal to all federal, state and local government web resources and services.